Time;durP1;ratioP1;P1;durP2;ratioP2;P2;SDS_P1;SDS_P2;PMS_P1;PMS_P2;Temp;Humidity;BMP_temperature;BMP_pressure;BME280_temperature;BME280_humidity;BME280_pressure;Samples;Min_cycle;Max_cycle;Signal;HPM_P1;HPM_P2
2022/09/14 00:00:54;;;;;;;6.47;5.88;;;;;;;10.78;92.88;98685.31;4890173;29;20089;-75
2022/09/14 00:03:20;;;;;;;7.28;5.90;;;;;;;10.73;94.27;98696.75;4879639;29;20037;-79
2022/09/14 00:05:46;;;;;;;6.18;5.68;;;;;;;10.84;93.46;98682.50;4876910;29;20108;-76
2022/09/14 00:08:13;;;;;;;6.78;6.25;;;;;;;10.73;93.73;98689.84;4872273;29;20356;-76
2022/09/14 00:10:42;;;;;;;6.43;5.93;;;;;;;10.76;93.56;98674.19;4871268;29;20042;-77
2022/09/14 00:13:08;;;;;;;6.65;6.13;;;;;;;10.88;93.37;98686.66;4886017;29;20320;-79
2022/09/14 00:15:38;;;;;;;6.28;5.78;;;;;;;10.93;93.24;98673.53;4889751;29;20088;-78
2022/09/14 00:18:05;;;;;;;6.85;6.18;;;;;;;10.94;92.72;98674.38;4881900;29;20033;-78
2022/09/14 00:20:31;;;;;;;6.95;6.40;;;;;;;10.78;93.79;98677.56;4870060;29;20049;-78
2022/09/14 00:22:57;;;;;;;6.95;6.35;;;;;;;10.87;94.10;98669.44;4871167;29;20076;-79
2022/09/14 00:25:22;;;;;;;6.90;6.30;;;;;;;10.83;93.67;98667.88;4888343;29;20029;-76
2022/09/14 00:27:48;;;;;;;6.63;6.10;;;;;;;10.90;93.76;98668.47;4876130;29;20049;-76
2022/09/14 00:30:14;;;;;;;7.28;6.78;;;;;;;10.94;93.63;98666.59;4880564;29;20036;-75
2022/09/14 00:32:39;;;;;;;6.95;6.35;;;;;;;10.97;93.50;98674.25;4885057;29;20096;-76
2022/09/14 00:35:05;;;;;;;6.88;6.28;;;;;;;10.90;93.57;98657.25;4871131;29;20031;-74
2022/09/14 00:37:31;;;;;;;6.78;6.20;;;;;;;10.82;94.36;98661.00;4889944;29;20033;-74
2022/09/14 00:39:57;;;;;;;6.57;6.07;;;;;;;10.89;94.21;98669.38;4891224;29;20063;-74
2022/09/14 00:42:22;;;;;;;7.28;6.68;;;;;;;11.05;93.35;98661.84;4898484;29;20040;-73
2022/09/14 00:44:48;;;;;;;7.13;6.53;;;;;;;11.02;93.07;98673.16;4867212;29;20025;-74
2022/09/14 00:47:15;;;;;;;6.68;6.18;;;;;;;11.02;93.59;98664.56;4871177;29;20225;-74
2022/09/14 00:49:42;;;;;;;7.18;6.47;;;;;;;11.03;93.41;98661.03;4888822;29;20025;-75
2022/09/14 00:52:15;;;;;;;6.97;6.38;;;;;;;10.87;93.11;98640.97;4889412;29;20036;-74
2022/09/14 00:54:48;;;;;;;7.57;6.97;;;;;;;10.98;93.66;98650.88;4878083;29;20037;-74
2022/09/14 00:57:15;;;;;;;6.85;6.32;;;;;;;10.98;93.07;98648.28;4895108;29;20029;-75
2022/09/14 00:59:42;;;;;;;7.43;6.70;;;;;;;10.91;93.26;98648.59;4889792;29;20037;-73
2022/09/14 01:02:10;;;;;;;6.85;6.20;;;;;;;11.02;93.32;98638.66;4889598;29;20029;-74
2022/09/14 01:04:37;;;;;;;6.18;5.68;;;;;;;10.99;93.15;98642.19;4888413;29;20025;-75
2022/09/14 01:07:21;;;;;;;7.03;6.47;;;;;;;10.95;93.30;98652.75;4885577;29;20036;-74
2022/09/14 01:10:27;;;;;;;6.40;5.82;;;;;;;11.01;93.62;98640.38;4872788;29;20047;-74
2022/09/14 01:13:22;;;;;;;6.45;6.03;;;;;;;11.06;93.58;98640.22;4858877;29;20037;-75
2022/09/14 01:16:11;;;;;;;7.10;6.47;;;;;;;11.00;93.51;98632.66;4875875;29;20049;-73
2022/09/14 01:18:43;;;;;;;6.18;5.78;;;;;;;10.86;93.56;98630.66;4880842;29;20113;-73
2022/09/14 01:21:34;;;;;;;6.97;6.47;;;;;;;10.94;93.66;98625.16;4881331;29;20033;-75
2022/09/14 01:24:10;;;;;;;6.75;6.28;;;;;;;11.02;93.90;98641.25;4879660;29;20060;-74
2022/09/14 01:26:43;;;;;;;6.28;5.78;;;;;;;11.09;92.80;98610.72;4872706;29;20124;-76
2022/09/14 01:29:15;;;;;;;6.68;6.07;;;;;;;11.06;92.87;98622.06;4888655;29;20044;-73
2022/09/14 01:31:47;;;;;;;6.55;6.03;;;;;;;11.04;93.41;98636.81;4871666;29;20089;-73
2022/09/14 01:34:19;;;;;;;6.72;6.18;;;;;;;11.03;93.59;98627.34;4863424;29;20068;-74
2022/09/14 01:36:50;;;;;;;5.22;4.80;;;;;;;10.81;93.97;98620.44;4879636;29;20052;-75
2022/09/14 01:39:18;;;;;;;5.50;4.97;;;;;;;10.84;94.19;98622.91;4882827;29;20061;-73
2022/09/14 01:41:46;;;;;;;5.88;5.47;;;;;;;10.98;93.78;98613.78;4870981;29;20471;-74
2022/09/14 01:44:35;;;;;;;5.85;5.45;;;;;;;10.86;93.63;98610.75;4888875;29;20033;-75
2022/09/14 01:47:09;;;;;;;6.20;5.20;;;;;;;10.97;93.71;98617.25;4887728;29;20072;-74
2022/09/14 01:49:47;;;;;;;6.20;5.70;;;;;;;11.01;94.37;98616.22;4872845;29;20101;-75
2022/09/14 01:52:24;;;;;;;6.32;5.78;;;;;;;10.96;93.77;98587.94;4882016;29;20268;-75
2022/09/14 01:55:12;;;;;;;5.90;5.47;;;;;;;11.11;93.71;98614.13;4888961;29;20036;-75
2022/09/14 01:57:41;;;;;;;6.15;5.60;;;;;;;11.05;94.05;98610.84;4879032;29;20105;-74
2022/09/14 02:00:10;;;;;;;5.70;5.20;;;;;;;10.98;93.84;98598.22;4874752;29;20044;-75
2022/09/14 02:02:41;;;;;;;5.78;5.28;;;;;;;11.05;94.42;98599.66;4888470;29;20085;-74
2022/09/14 02:05:13;;;;;;;5.32;4.88;;;;;;;11.00;94.12;98602.44;4887292;29;20070;-73
2022/09/14 02:07:39;;;;;;;5.20;4.70;;;;;;;11.19;94.46;98602.53;4872231;29;20344;-72
2022/09/14 02:10:09;;;;;;;5.93;5.32;;;;;;;11.25;93.27;98587.63;4887157;29;20041;-72
2022/09/14 02:12:37;;;;;;;5.30;4.90;;;;;;;11.04;93.93;98595.38;4863641;29;20059;-73
2022/09/14 02:15:04;;;;;;;5.57;5.05;;;;;;;11.02;94.92;98590.25;4885080;29;20292;-73
2022/09/14 02:17:30;;;;;;;4.93;4.55;;;;;;;10.98;94.92;98590.47;4888019;29;20037;-73
2022/09/14 02:19:58;;;;;;;5.97;5.13;;;;;;;10.98;95.39;98575.75;4887156;29;20036;-73
2022/09/14 02:22:25;;;;;;;7.05;5.85;;;;;;;11.05;95.10;98579.75;4875022;29;20048;-75
2022/09/14 02:24:52;;;;;;;6.18;5.65;;;;;;;10.90;95.57;98588.16;4871877;29;20090;-74
2022/09/14 02:27:18;;;;;;;6.30;5.80;;;;;;;10.98;95.52;98577.50;4872953;29;20129;-76
2022/09/14 02:29:44;;;;;;;5.38;4.88;;;;;;;11.11;95.62;98583.84;4873079;29;20029;-74
2022/09/14 02:32:22;;;;;;;5.63;5.13;;;;;;;11.16;95.02;98584.50;4891963;29;20040;-73
2022/09/14 02:35:04;;;;;;;5.72;4.75;;;;;;;10.93;95.88;98559.56;4874641;29;20033;-75
2022/09/14 02:37:54;;;;;;;6.97;5.28;;;;;;;10.91;96.22;98573.47;4887435;29;20396;-76
2022/09/14 02:40:39;;;;;;;5.45;4.95;;;;;;;11.18;95.85;98577.50;4877866;29;20115;-67
2022/09/14 02:43:17;;;;;;;5.78;5.30;;;;;;;11.02;95.84;98574.72;4874007;29;20049;-76
2022/09/14 02:45:55;;;;;;;5.13;4.63;;;;;;;11.21;95.61;98579.97;4880303;29;20456;-70
2022/09/14 02:48:33;;;;;;;5.57;5.07;;;;;;;10.97;95.74;98578.41;4885414;29;20081;-75
2022/09/14 02:51:19;;;;;;;5.88;5.05;;;;;;;11.09;96.05;98572.72;4876062;29;20077;-76
2022/09/14 02:53:48;;;;;;;7.10;5.45;;;;;;;11.08;95.64;98573.63;4891555;29;20081;-75
2022/09/14 02:56:15;;;;;;;5.57;5.10;;;;;;;11.13;95.96;98574.28;4874748;29;20280;-73
2022/09/14 02:58:43;;;;;;;6.70;5.80;;;;;;;10.90;96.71;98566.59;4874784;29;20029;-75
2022/09/14 03:01:12;;;;;;;5.82;5.30;;;;;;;10.90;97.28;98561.44;4884369;29;20221;-75
2022/09/14 03:03:38;;;;;;;6.07;5.53;;;;;;;10.94;97.41;98565.56;4891066;29;20510;-75
2022/09/14 03:06:04;;;;;;;6.18;5.65;;;;;;;11.04;96.88;98567.75;4887227;29;20026;-75
2022/09/14 03:08:30;;;;;;;8.38;5.80;;;;;;;11.03;97.08;98567.78;4870918;29;20084;-75
2022/09/14 03:10:56;;;;;;;6.90;6.22;;;;;;;11.11;96.92;98563.13;4886004;29;20240;-75
2022/09/14 03:13:22;;;;;;;6.90;5.60;;;;;;;11.01;97.34;98561.81;4876887;29;20029;-74
2022/09/14 03:15:48;;;;;;;6.60;5.53;;;;;;;11.06;96.92;98549.53;4881022;29;20076;-73
2022/09/14 03:18:13;;;;;;;8.05;6.10;;;;;;;11.18;96.43;98550.75;4885917;29;20033;-71
2022/09/14 03:20:39;;;;;;;6.95;6.25;;;;;;;11.08;96.39;98550.28;4872767;29;20032;-75
2022/09/14 03:23:07;;;;;;;7.13;6.53;;;;;;;11.11;97.37;98549.34;4889712;29;20225;-74
2022/09/14 03:25:42;;;;;;;7.45;6.75;;;;;;;11.17;97.11;98536.97;4878268;29;20021;-74
2022/09/14 03:28:09;;;;;;;9.32;7.78;;;;;;;11.00;97.10;98539.41;4871924;29;20025;-73
2022/09/14 03:30:35;;;;;;;8.48;7.35;;;;;;;11.16;96.81;98542.19;4871857;29;20040;-74
2022/09/14 03:33:02;;;;;;;8.88;7.90;;;;;;;11.25;96.99;98547.00;4889793;29;20052;-77
2022/09/14 03:35:30;;;;;;;9.60;8.35;;;;;;;11.27;96.56;98545.16;4889265;29;20033;-74
2022/09/14 03:37:56;;;;;;;9.88;8.88;;;;;;;11.25;96.85;98543.56;4890318;29;20076;-74
2022/09/14 03:40:22;;;;;;;10.98;9.75;;;;;;;11.27;96.29;98534.81;4875700;29;20065;-74
2022/09/14 03:42:49;;;;;;;10.57;9.50;;;;;;;11.10;96.40;98532.09;4870536;29;20053;-74
2022/09/14 03:45:16;;;;;;;11.40;10.30;;;;;;;11.05;97.09;98525.34;4876874;29;20077;-75
2022/09/14 03:47:42;;;;;;;11.10;9.98;;;;;;;11.28;95.81;98539.09;4889390;29;20089;-73
2022/09/14 03:50:10;;;;;;;13.45;11.60;;;;;;;11.19;96.73;98535.13;4872773;29;20029;-73
2022/09/14 03:52:36;;;;;;;12.27;11.07;;;;;;;11.01;97.63;98536.75;4888109;29;20219;-74
2022/09/14 03:55:04;;;;;;;14.75;11.82;;;;;;;11.13;96.92;98530.22;4890146;29;20069;-72
2022/09/14 03:57:30;;;;;;;14.75;11.63;;;;;;;11.26;96.36;98529.69;4883446;29;20058;-72
2022/09/14 03:59:55;;;;;;;13.85;12.32;;;;;;;11.34;96.32;98533.66;4873702;29;20037;-73
2022/09/14 04:02:21;;;;;;;14.50;12.85;;;;;;;11.21;96.90;98537.66;4890246;29;20205;-73
2022/09/14 04:04:47;;;;;;;14.40;12.77;;;;;;;11.22;96.91;98535.00;4873444;29;20033;-68
2022/09/14 04:07:14;;;;;;;13.23;11.82;;;;;;;11.31;96.45;98528.56;4882912;29;20032;-68
2022/09/14 04:09:41;;;;;;;14.73;13.27;;;;;;;11.37;96.45;98535.25;4889771;29;20017;-68
2022/09/14 04:12:07;;;;;;;15.25;13.60;;;;;;;11.33;96.83;98520.72;4886350;29;20348;-68
2022/09/14 04:14:32;;;;;;;14.07;12.48;;;;;;;11.40;96.25;98523.00;4871233;29;20060;-68
2022/09/14 04:17:16;;;;;;;11.10;9.90;;;;;;;11.18;96.22;98532.63;4888713;29;20103;-69
2022/09/14 04:19:42;;;;;;;9.75;8.85;;;;;;;11.41;96.33;98523.84;4886123;29;20033;-68
2022/09/14 04:22:07;;;;;;;11.70;9.85;;;;;;;11.46;96.23;98527.09;4880111;29;20073;-69
2022/09/14 04:24:33;;;;;;;11.23;10.15;;;;;;;11.32;96.13;98522.50;4882480;29;20041;-69
2022/09/14 04:26:58;;;;;;;11.18;9.23;;;;;;;11.32;96.20;98532.88;4887038;29;20116;-70
2022/09/14 04:29:24;;;;;;;10.82;9.70;;;;;;;11.48;96.15;98529.59;4870867;29;20385;-69
2022/09/14 04:31:50;;;;;;;10.63;8.73;;;;;;;11.14;97.02;98537.06;4887184;29;20333;-70
2022/09/14 04:34:15;;;;;;;11.38;9.82;;;;;;;11.39;96.58;98530.84;4877150;29;20396;-69
2022/09/14 04:36:41;;;;;;;9.48;8.40;;;;;;;11.48;96.17;98524.41;4882741;29;20088;-69
2022/09/14 04:39:11;;;;;;;11.13;8.70;;;;;;;11.33;96.21;98534.56;4889275;29;20060;-69
2022/09/14 04:41:36;;;;;;;10.18;8.60;;;;;;;11.53;95.55;98536.28;4895270;29;20099;-68
2022/09/14 04:44:02;;;;;;;9.65;8.75;;;;;;;11.53;95.19;98528.50;4889268;29;20077;-68
2022/09/14 04:46:35;;;;;;;12.05;8.93;;;;;;;11.60;94.98;98528.22;4874973;29;20353;-67
2022/09/14 04:49:01;;;;;;;9.93;8.93;;;;;;;11.60;95.11;98528.22;4880937;29;20325;-68
2022/09/14 04:51:29;;;;;;;10.05;8.15;;;;;;;11.56;94.36;98517.97;4881672;29;20036;-67
2022/09/14 04:53:57;;;;;;;11.48;8.80;;;;;;;11.63;95.31;98522.88;4871014;29;20041;-68
2022/09/14 04:56:24;;;;;;;12.48;8.90;;;;;;;11.40;95.27;98517.81;4893906;29;20036;-68
2022/09/14 04:58:52;;;;;;;10.02;9.07;;;;;;;11.60;95.65;98525.63;4897270;29;20060;-68
2022/09/14 05:01:20;;;;;;;10.35;8.98;;;;;;;11.63;95.29;98523.75;4894533;29;20037;-69
2022/09/14 05:03:46;;;;;;;9.80;8.80;;;;;;;11.74;95.06;98531.91;4896808;29;20029;-68
2022/09/14 05:06:18;;;;;;;12.73;9.10;;;;;;;11.69;94.90;98528.66;4903182;29;20076;-67
2022/09/14 05:08:44;;;;;;;10.27;9.05;;;;;;;11.69;94.57;98531.25;4887105;29;20099;-68
2022/09/14 05:11:13;;;;;;;10.63;9.20;;;;;;;11.66;94.53;98525.38;4886576;29;20033;-66
2022/09/14 05:13:39;;;;;;;11.45;9.40;;;;;;;11.69;94.30;98533.00;4872984;29;20034;-70
2022/09/14 05:16:13;;;;;;;11.35;10.18;;;;;;;11.70;94.03;98524.28;4881660;29;20329;-72
2022/09/14 05:18:39;;;;;;;11.23;9.90;;;;;;;11.76;94.52;98534.41;4892917;29;20041;-71
2022/09/14 05:21:07;;;;;;;10.55;9.35;;;;;;;11.86;93.84;98540.03;4885283;29;20221;-72
2022/09/14 05:23:33;;;;;;;10.43;9.32;;;;;;;11.81;94.36;98537.63;4868589;29;20047;-72
2022/09/14 05:25:59;;;;;;;10.68;9.57;;;;;;;11.79;93.67;98536.88;4886988;29;20053;-76
2022/09/14 05:28:25;;;;;;;10.60;9.55;;;;;;;11.76;94.23;98542.19;4887127;29;20033;-74
2022/09/14 05:30:51;;;;;;;11.65;10.07;;;;;;;11.74;94.19;98547.44;4878531;29;20057;-78
2022/09/14 05:33:17;;;;;;;11.35;10.18;;;;;;;11.82;93.99;98538.47;4873883;29;20049;-73
2022/09/14 05:35:43;;;;;;;10.90;9.48;;;;;;;11.82;94.01;98539.31;4887181;29;20037;-72
2022/09/14 05:38:09;;;;;;;12.15;10.93;;;;;;;11.90;93.17;98532.03;4868416;29;20112;-72
2022/09/14 05:40:35;;;;;;;10.98;9.70;;;;;;;11.85;94.09;98543.53;4869641;29;20033;-75
2022/09/14 05:43:00;;;;;;;13.10;9.98;;;;;;;11.66;94.41;98540.94;4878993;29;20316;-72
2022/09/14 05:45:26;;;;;;;13.18;9.50;;;;;;;11.72;93.73;98533.69;4881821;29;20039;-72
2022/09/14 05:47:52;;;;;;;11.10;9.98;;;;;;;11.69;93.91;98536.44;4887498;29;20109;-73
2022/09/14 05:50:17;;;;;;;12.45;10.52;;;;;;;11.76;94.24;98534.41;4869438;29;20089;-72
2022/09/14 05:52:43;;;;;;;13.32;10.60;;;;;;;11.96;93.32;98537.91;4884927;29;20028;-74
2022/09/14 05:55:08;;;;;;;11.45;10.25;;;;;;;11.77;93.27;98525.69;4877157;29;20314;-76
2022/09/14 05:57:34;;;;;;;10.68;9.55;;;;;;;11.85;93.06;98528.78;4877470;29;20041;-76
2022/09/14 06:00:00;;;;;;;12.05;10.13;;;;;;;11.88;93.43;98523.47;4892683;29;20051;-72
2022/09/14 06:02:25;;;;;;;11.07;9.70;;;;;;;11.96;93.37;98530.94;4892302;29;20036;-72
2022/09/14 06:04:51;;;;;;;10.80;9.70;;;;;;;11.89;92.83;98532.94;4876009;29;20037;-73
2022/09/14 06:07:16;;;;;;;10.98;9.88;;;;;;;12.01;92.89;98533.31;4884678;29;20072;-74
2022/09/14 06:09:42;;;;;;;11.43;10.23;;;;;;;11.97;92.61;98524.00;4896936;29;20092;-73
2022/09/14 06:12:08;;;;;;;11.48;10.35;;;;;;;12.04;92.46;98527.97;4906837;29;20113;-72
2022/09/14 06:14:33;;;;;;;11.30;9.35;;;;;;;12.14;91.34;98526.66;4891757;29;20040;-72
2022/09/14 06:16:59;;;;;;;11.27;10.05;;;;;;;12.05;92.36;98527.91;4874316;29;20104;-76
2022/09/14 06:19:25;;;;;;;12.98;10.60;;;;;;;12.11;90.97;98531.97;4885535;29;20064;-75
2022/09/14 06:21:51;;;;;;;11.98;10.75;;;;;;;12.03;91.10;98534.09;4883396;29;20029;-74
2022/09/14 06:24:17;;;;;;;12.38;11.02;;;;;;;11.98;91.01;98515.31;4873635;29;20033;-76
2022/09/14 06:26:42;;;;;;;11.93;10.50;;;;;;;12.15;91.96;98530.91;4871961;29;20086;-73
2022/09/14 06:29:08;;;;;;;12.32;10.73;;;;;;;12.02;92.10;98527.22;4891214;29;20209;-74
2022/09/14 06:31:34;;;;;;;12.60;10.77;;;;;;;12.04;92.49;98522.78;4877307;29;20029;-74
2022/09/14 06:34:00;;;;;;;12.07;10.63;;;;;;;12.14;91.64;98523.22;4882297;29;20096;-71
2022/09/14 06:36:27;;;;;;;13.48;11.77;;;;;;;12.24;91.37;98532.25;4885953;29;20089;-72
2022/09/14 06:38:53;;;;;;;12.93;11.57;;;;;;;12.38;91.58;98526.41;4871480;29;20241;-71
2022/09/14 06:41:22;;;;;;;13.95;12.45;;;;;;;12.32;91.06;98514.56;4891030;29;20143;-72
2022/09/14 06:43:49;;;;;;;15.57;12.38;;;;;;;12.47;91.13;98523.38;4874309;29;20050;-72
2022/09/14 06:46:20;;;;;;;15.27;12.32;;;;;;;12.51;90.44;98529.25;4883835;29;20029;-73
2022/09/14 06:48:51;;;;;;;12.18;10.98;;;;;;;12.51;89.23;98519.72;4890719;29;20033;-70
2022/09/14 06:51:18;;;;;;;13.48;11.48;;;;;;;12.41;89.11;98513.28;4890984;29;20040;-71
2022/09/14 06:53:45;;;;;;;13.75;12.35;;;;;;;12.63;89.76;98526.06;4891147;29;20053;-71
2022/09/14 06:56:11;;;;;;;13.75;12.27;;;;;;;12.65;90.16;98513.84;4871265;29;20025;-71
2022/09/14 06:58:37;;;;;;;13.70;12.27;;;;;;;12.66;89.92;98514.69;4885699;29;20028;-72
2022/09/14 07:01:04;;;;;;;14.60;12.43;;;;;;;12.62;89.22;98511.41;4891031;29;20033;-71
2022/09/14 07:03:31;;;;;;;13.70;12.35;;;;;;;12.78;89.15;98508.88;4890695;29;20056;-72
2022/09/14 07:06:02;;;;;;;14.07;12.68;;;;;;;12.78;88.75;98506.28;4889882;29;20029;-73
2022/09/14 07:08:28;;;;;;;16.33;13.40;;;;;;;12.61;88.26;98517.50;4871780;29;20029;-74
2022/09/14 07:10:57;;;;;;;14.27;12.65;;;;;;;12.76;88.45;98510.72;4902559;29;20044;-73
2022/09/14 07:13:23;;;;;;;14.65;12.93;;;;;;;12.84;88.60;98503.41;4889587;29;20273;-73
2022/09/14 07:15:49;;;;;;;16.17;13.10;;;;;;;12.87;87.87;98505.84;4889589;29;20045;-73
2022/09/14 07:18:15;;;;;;;14.85;13.32;;;;;;;12.86;87.31;98513.72;4886715;29;20046;-73
2022/09/14 07:20:41;;;;;;;15.73;13.25;;;;;;;12.92;88.57;98506.44;4872398;29;20064;-74
2022/09/14 07:23:07;;;;;;;17.73;14.55;;;;;;;12.88;87.72;98504.94;4889706;29;20024;-70
2022/09/14 07:25:32;;;;;;;17.40;14.18;;;;;;;12.69;88.69;98509.34;4889908;29;20054;-69
2022/09/14 07:27:59;;;;;;;20.25;14.73;;;;;;;12.61;89.77;98504.50;4890440;29;20040;-70
2022/09/14 07:30:26;;;;;;;19.85;15.45;;;;;;;12.62;88.81;98495.81;4886106;29;20029;-70
2022/09/14 07:32:53;;;;;;;15.55;13.90;;;;;;;12.77;89.85;98505.44;4871824;29;20416;-70
2022/09/14 07:35:19;;;;;;;20.52;15.35;;;;;;;12.89;88.49;98503.16;4890610;29;20049;-70
2022/09/14 07:37:44;;;;;;;18.95;16.15;;;;;;;12.84;89.27;98499.94;4875420;29;20117;-69
2022/09/14 07:40:11;;;;;;;18.85;15.93;;;;;;;12.52;90.94;98494.59;4881685;29;20029;-70
2022/09/14 07:42:37;;;;;;;21.20;17.05;;;;;;;12.68;90.43;98492.91;4884721;29;20026;-69
2022/09/14 07:45:04;;;;;;;19.65;16.52;;;;;;;12.54;91.24;98495.34;4882206;29;20052;-71
2022/09/14 07:47:30;;;;;;;22.13;17.90;;;;;;;12.39;92.77;98492.56;4889683;29;20089;-70
2022/09/14 07:49:56;;;;;;;18.27;15.88;;;;;;;12.48;92.89;98490.47;4890156;29;20092;-70
2022/09/14 07:52:22;;;;;;;21.13;17.73;;;;;;;12.50;92.82;98496.41;4890064;29;20024;-70
2022/09/14 07:54:47;;;;;;;19.80;16.75;;;;;;;12.43;93.30;98493.28;4900191;29;20045;-70
2022/09/14 07:57:13;;;;;;;20.13;16.90;;;;;;;12.48;93.46;98491.28;4890596;29;20037;-70
2022/09/14 07:59:39;;;;;;;19.98;17.50;;;;;;;12.35;93.81;98485.00;4890075;29;20056;-70
2022/09/14 08:02:06;;;;;;;21.60;18.23;;;;;;;12.53;94.09;98486.72;4873165;29;20314;-71
2022/09/14 08:04:34;;;;;;;18.35;16.35;;;;;;;12.56;94.02;98480.53;4871072;29;20041;-70
2022/09/14 08:07:01;;;;;;;19.95;17.02;;;;;;;12.60;93.95;98495.88;4878683;29;20305;-70
2022/09/14 08:09:27;;;;;;;21.73;17.90;;;;;;;12.69;93.55;98492.00;4885093;29;20321;-71
2022/09/14 08:11:53;;;;;;;19.30;17.25;;;;;;;12.64;93.93;98483.59;4871301;29;20028;-70
2022/09/14 08:14:19;;;;;;;18.67;16.67;;;;;;;12.72;93.10;98483.22;4889621;29;20048;-71
2022/09/14 08:16:44;;;;;;;20.98;16.45;;;;;;;12.82;92.16;98488.78;4874947;29;20116;-71
2022/09/14 08:19:16;;;;;;;18.08;16.13;;;;;;;12.69;92.57;98483.38;4887741;29;20045;-69
2022/09/14 08:21:42;;;;;;;20.60;17.33;;;;;;;12.72;93.12;98486.63;4877117;29;20348;-70
2022/09/14 08:24:11;;;;;;;18.77;16.80;;;;;;;12.83;92.82;98480.91;4888652;29;20049;-69
2022/09/14 08:26:37;;;;;;;20.83;17.23;;;;;;;12.89;92.61;98479.78;4889533;29;20115;-69
2022/09/14 08:29:03;;;;;;;20.17;16.58;;;;;;;12.63;92.17;98479.31;4889308;29;20298;-69
2022/09/14 08:31:30;;;;;;;20.77;17.60;;;;;;;12.81;92.46;98485.34;4877459;29;20061;-69
2022/09/14 08:34:01;;;;;;;19.10;16.83;;;;;;;12.92;91.96;98464.03;4878926;29;20028;-70
2022/09/14 08:36:33;;;;;;;17.08;14.98;;;;;;;13.06;90.97;98476.31;4892607;29;20044;-69
2022/09/14 08:38:59;;;;;;;;;;;;;;;13.15;91.36;98470.63;4898601;29;20040;-70
2022/09/14 08:41:42;;;;;;;18.55;16.08;;;;;;;12.92;90.95;98454.44;4893278;29;19924;-69
2022/09/14 08:44:10;;;;;;;19.42;15.82;;;;;;;12.98;92.37;98465.47;4896139;29;20391;-70
2022/09/14 08:46:54;;;;;;;16.08;14.32;;;;;;;12.99;92.07;98469.75;4895074;29;20028;-70
2022/09/14 08:49:45;;;;;;;16.75;14.23;;;;;;;13.10;92.70;98472.66;4896053;29;20045;-69
2022/09/14 08:52:34;;;;;;;14.80;13.40;;;;;;;12.82;92.49;98474.03;4888394;29;20024;-71
2022/09/14 08:55:05;;;;;;;17.75;14.68;;;;;;;13.03;92.09;98476.47;4880977;29;20446;-71
2022/09/14 08:57:54;;;;;;;15.80;13.80;;;;;;;12.80;92.09;98477.63;4893003;29;20084;-70
2022/09/14 09:00:23;;;;;;;14.73;13.32;;;;;;;12.78;92.27;98488.09;4897692;29;20029;-71
2022/09/14 09:03:18;;;;;;;15.25;13.75;;;;;;;13.01;92.09;98478.31;4878535;29;20036;-71
2022/09/14 09:05:57;;;;;;;15.50;13.98;;;;;;;13.01;91.50;98473.09;4875926;29;20305;-70
2022/09/14 09:08:52;;;;;;;23.70;19.50;;;;;;;13.20;91.39;98473.84;4885521;29;20052;-72
2022/09/14 09:11:21;;;;;;;15.90;14.38;;;;;;;13.25;92.10;98469.25;4832551;29;20065;-72
2022/09/14 09:13:49;;;;;;;14.52;13.07;;;;;;;13.15;90.05;98464.59;4884886;29;20028;-72
2022/09/14 09:16:23;;;;;;;15.32;13.48;;;;;;;13.28;90.76;98466.50;4872851;29;20049;-71
2022/09/14 09:18:57;;;;;;;16.38;14.55;;;;;;;13.21;90.76;98464.28;4870109;29;20045;-71
2022/09/14 09:21:34;;;;;;;15.85;14.23;;;;;;;13.20;91.10;98466.03;4873622;29;20105;-71
2022/09/14 09:24:20;;;;;;;14.40;12.75;;;;;;;13.27;90.40;98475.19;4887423;29;20033;-71
2022/09/14 09:26:46;;;;;;;15.02;13.43;;;;;;;13.18;91.50;98467.91;4885887;29;20037;-72
2022/09/14 09:29:11;;;;;;;15.00;13.50;;;;;;;13.15;90.26;98462.00;4878400;29;20054;-73
2022/09/14 09:31:43;;;;;;;14.50;12.90;;;;;;;13.30;90.40;98466.41;4873005;29;20029;-70
2022/09/14 09:34:14;;;;;;;14.10;12.80;;;;;;;13.31;90.06;98468.09;4875134;29;20060;-71
2022/09/14 09:36:44;;;;;;;14.77;13.10;;;;;;;13.36;89.18;98454.88;4879369;29;20104;-72
2022/09/14 09:39:11;;;;;;;14.35;12.93;;;;;;;13.28;90.00;98460.44;4875875;29;20071;-72
2022/09/14 09:41:44;;;;;;;13.80;12.45;;;;;;;13.34;88.99;98459.28;4869809;29;20052;-70
2022/09/14 09:44:10;;;;;;;16.02;14.15;;;;;;;13.23;89.75;98462.44;4876674;29;20028;-70
2022/09/14 09:46:46;;;;;;;15.20;13.70;;;;;;;13.33;88.80;98452.41;4874609;29;20038;-70
2022/09/14 09:49:19;;;;;;;16.73;15.00;;;;;;;13.24;88.81;98445.91;4879170;29;20033;-70
2022/09/14 09:51:45;;;;;;;15.13;13.60;;;;;;;13.46;88.20;98458.66;4888324;29;20289;-70
2022/09/14 09:54:14;;;;;;;15.43;13.85;;;;;;;13.44;89.21;98445.75;4886113;29;20025;-70
2022/09/14 09:56:51;;;;;;;17.27;15.48;;;;;;;13.51;88.85;98448.88;4878872;29;20115;-70
2022/09/14 09:59:43;;;;;;;19.02;15.77;;;;;;;13.32;89.12;98451.56;4893257;29;20254;-70
2022/09/14 10:02:28;;;;;;;16.17;14.20;;;;;;;13.36;89.10;98452.28;4890904;29;20371;-70
2022/09/14 10:05:18;;;;;;;17.77;15.45;;;;;;;13.38;89.17;98460.81;4893798;29;20029;-69
2022/09/14 10:07:57;;;;;;;17.42;15.60;;;;;;;13.29;89.09;98446.53;4894542;29;20048;-70
2022/09/14 10:10:41;;;;;;;18.80;16.80;;;;;;;13.24;90.16;98459.75;4893759;29;20084;-70
2022/09/14 10:13:33;;;;;;;19.52;17.45;;;;;;;13.36;89.86;98455.72;4888263;29;20025;-70
2022/09/14 10:16:28;;;;;;;19.25;17.27;;;;;;;13.41;90.61;98452.84;4893035;29;20100;-70
2022/09/14 10:18:54;;;;;;;18.02;16.23;;;;;;;13.32;91.20;98463.72;4895748;29;20036;-71
2022/09/14 10:21:22;;;;;;;19.67;17.75;;;;;;;13.27;91.88;98459.59;4895822;29;20233;-71
2022/09/14 10:24:18;;;;;;;22.08;17.88;;;;;;;13.34;91.20;98461.88;4897236;29;20043;-70
2022/09/14 10:26:43;;;;;;;17.23;15.38;;;;;;;13.51;90.80;98459.28;4893716;29;20029;-71
2022/09/14 10:29:23;;;;;;;19.17;16.58;;;;;;;13.54;89.93;98466.03;4896197;29;20088;-70
2022/09/14 10:31:49;;;;;;;17.98;15.88;;;;;;;13.34;89.73;98460.13;4895773;29;20036;-70
2022/09/14 10:34:19;;;;;;;16.60;15.05;;;;;;;13.32;91.38;98467.16;4896823;29;20100;-70
2022/09/14 10:36:55;;;;;;;17.33;15.70;;;;;;;13.34;90.35;98459.28;4896426;29;20033;-71
2022/09/14 10:39:36;;;;;;;17.08;15.32;;;;;;;13.37;90.97;98469.56;4887906;29;20420;-70
2022/09/14 10:42:21;;;;;;;17.10;15.40;;;;;;;13.24;91.79;98459.75;4879221;29;20073;-70
2022/09/14 10:44:58;;;;;;;16.83;15.13;;;;;;;13.27;90.94;98467.41;4891867;29;20048;-70
2022/09/14 10:47:33;;;;;;;17.83;15.27;;;;;;;13.27;91.43;98462.19;4874242;29;20033;-70
2022/09/14 10:50:27;;;;;;;18.85;16.75;;;;;;;13.39;91.44;98465.13;4876107;29;20037;-70
2022/09/14 10:53:24;;;;;;;18.58;16.48;;;;;;;13.30;91.21;98459.44;4870895;29;20048;-70
2022/09/14 10:56:09;;;;;;;19.23;17.23;;;;;;;13.36;91.79;98442.69;4882597;29;20035;-70
2022/09/14 10:58:43;;;;;;;20.50;18.27;;;;;;;13.37;91.70;98456.56;4899101;29;20325;-69
2022/09/14 11:01:15;;;;;;;18.63;16.75;;;;;;;13.50;92.28;98462.78;4900061;29;20037;-69
2022/09/14 11:03:40;;;;;;;;;;;;;;;13.60;92.43;98463.97;4891795;29;20033;-69
2022/09/14 11:06:26;;;;;;;18.15;15.48;;;;;;;13.58;91.65;98459.75;4900108;29;19999;-69
2022/09/14 11:09:02;;;;;;;18.38;16.52;;;;;;;13.60;92.10;98456.16;4898765;29;20052;-70
2022/09/14 11:11:32;;;;;;;19.05;17.15;;;;;;;13.38;92.63;98442.63;4881101;29;20283;-69
2022/09/14 11:14:10;;;;;;;18.65;16.65;;;;;;;13.55;91.31;98457.31;4882875;29;20031;-71
2022/09/14 11:16:46;;;;;;;17.67;15.88;;;;;;;13.35;91.49;98471.38;4870770;29;20037;-70
2022/09/14 11:19:31;;;;;;;17.98;16.10;;;;;;;13.40;92.39;98474.59;4888967;29;20265;-72
2022/09/14 11:22:03;;;;;;;15.52;14.02;;;;;;;13.34;92.51;98477.47;4866350;29;20037;-69
2022/09/14 11:24:50;;;;;;;21.00;16.58;;;;;;;13.33;92.77;98468.84;4870788;29;20080;-69
2022/09/14 11:27:27;;;;;;;17.80;15.52;;;;;;;13.38;92.67;98471.22;4873376;29;20036;-69
2022/09/14 11:29:59;;;;;;;17.85;15.30;;;;;;;13.34;93.24;98474.88;4890612;29;20029;-68
2022/09/14 11:32:51;;;;;;;15.43;13.93;;;;;;;13.43;93.14;98466.63;4874012;29;20104;-70
2022/09/14 11:35:51;;;;;;;15.90;13.90;;;;;;;13.59;92.79;98459.69;4884206;29;20202;-69
2022/09/14 11:38:20;;;;;;;17.15;14.77;;;;;;;13.54;92.77;98450.44;4863263;29;20213;-69
2022/09/14 11:41:15;;;;;;;16.70;14.45;;;;;;;13.53;92.41;98461.78;4894740;29;20047;-70